KOBE/OBE METAR and TAF weather

Enter ICAO airport designator
Station Type Date Time Source
KOBE METAR 2019/08/25 02:35 UTC NOAA

KOBE 250235Z AUTO 04003KT 10SM CLR 25/23 A2995 RMK AO2 LTG DSNT SW


Station Type Date Time Source
KOBE Decoded METAR 2019/08/25 02:35 UTC NOAA

Station name not available
Aug 24, 2019 - 10:35 PM EDT / 2019.08.25 0235 UTC
Wind: from the NE (040 degrees) at 3 MPH (3 KT):0
Visibility: 10 mile(s):0
Sky conditions: clear
Weather: Lightning observed
Temperature: 77 F (25 C)
Dew Point: 73 F (23 C)
Relative Humidity: 88%
Pressure (altimeter): 29.95 in. Hg (1014 hPa)
ob: KOBE 250235Z AUTO 04003KT 10SM CLR 25/23 A2995 RMK AO2 LTG DSNT SW
cycle: 2

Station Type Date Time Source
KOBE TAF UTC NOAA

Error!

Example: see airport list